sensor_id;sensor_type;location;lat;lon;timestamp;temperature;humidity
32476;DHT22;18929;48.008;10.882;2023-03-30T00:00:51;12.70;99.90
32476;DHT22;18929;48.008;10.882;2023-03-30T00:03:18;12.80;99.90
32476;DHT22;18929;48.008;10.882;2023-03-30T00:05:48;13.00;99.90
32476;DHT22;18929;48.008;10.882;2023-03-30T00:08:16;13.20;99.90
32476;DHT22;18929;48.008;10.882;2023-03-30T00:10:43;13.20;99.90
32476;DHT22;18929;48.008;10.882;2023-03-30T00:13:10;13.30;99.90
32476;DHT22;18929;48.008;10.882;2023-03-30T00:15:37;13.30;99.90
32476;DHT22;18929;48.008;10.882;2023-03-30T00:18:04;13.30;99.90
32476;DHT22;18929;48.008;10.882;2023-03-30T00:20:31;13.30;99.90
32476;DHT22;18929;48.008;10.882;2023-03-30T00:22:59;13.30;99.90
32476;DHT22;18929;48.008;10.882;2023-03-30T00:25:26;13.30;99.90
32476;DHT22;18929;48.008;10.882;2023-03-30T00:27:53;13.30;99.90
32476;DHT22;18929;48.008;10.882;2023-03-30T00:30:19;13.20;99.90
32476;DHT22;18929;48.008;10.882;2023-03-30T00:32:46;13.20;99.90
32476;DHT22;18929;48.008;10.882;2023-03-30T00:35:13;13.10;99.90
32476;DHT22;18929;48.008;10.882;2023-03-30T00:37:40;13.00;99.90
32476;DHT22;18929;48.008;10.882;2023-03-30T00:40:14;12.80;99.90
32476;DHT22;18929;48.008;10.882;2023-03-30T00:42:41;13.00;99.90
32476;DHT22;18929;48.008;10.882;2023-03-30T00:45:18;13.10;99.90
32476;DHT22;18929;48.008;10.882;2023-03-30T00:47:47;13.20;99.90
32476;DHT22;18929;48.008;10.882;2023-03-30T00:50:16;13.40;99.90
32476;DHT22;18929;48.008;10.882;2023-03-30T00:52:46;13.30;99.90
32476;DHT22;18929;48.008;10.882;2023-03-30T00:55:18;13.30;99.90
32476;DHT22;18929;48.008;10.882;2023-03-30T00:57:46;13.20;99.90
32476;DHT22;18929;48.008;10.882;2023-03-30T01:00:13;13.20;99.90
32476;DHT22;18929;48.008;10.882;2023-03-30T01:02:42;12.70;99.90
32476;DHT22;18929;48.008;10.882;2023-03-30T01:05:10;12.60;99.90
32476;DHT22;18929;48.008;10.882;2023-03-30T01:07:38;12.40;99.90
32476;DHT22;18929;48.008;10.882;2023-03-30T01:10:06;12.20;99.90
32476;DHT22;18929;48.008;10.882;2023-03-30T01:12:35;12.10;99.90
32476;DHT22;18929;48.008;10.882;2023-03-30T01:15:02;12.30;99.90
32476;DHT22;18929;48.008;10.882;2023-03-30T01:17:30;11.90;99.90
32476;DHT22;18929;48.008;10.882;2023-03-30T01:20:10;12.30;99.90
32476;DHT22;18929;48.008;10.882;2023-03-30T01:23:05;12.50;99.90
32476;DHT22;18929;48.008;10.882;2023-03-30T01:25:59;12.90;99.90
32476;DHT22;18929;48.008;10.882;2023-03-30T01:28:36;12.60;99.90
32476;DHT22;18929;48.008;10.882;2023-03-30T01:31:13;12.80;99.90
32476;DHT22;18929;48.008;10.882;2023-03-30T01:34:01;12.70;99.90
32476;DHT22;18929;48.008;10.882;2023-03-30T01:36:43;12.90;99.90
32476;DHT22;18929;48.008;10.882;2023-03-30T01:39:25;12.80;99.90
32476;DHT22;18929;48.008;10.882;2023-03-30T01:41:55;13.10;99.90
32476;DHT22;18929;48.008;10.882;2023-03-30T01:44:26;13.20;99.90
32476;DHT22;18929;48.008;10.882;2023-03-30T01:46:55;13.10;99.90
32476;DHT22;18929;48.008;10.882;2023-03-30T01:49:24;13.00;99.90
32476;DHT22;18929;48.008;10.882;2023-03-30T01:51:56;12.50;99.90
32476;DHT22;18929;48.008;10.882;2023-03-30T01:54:27;12.50;99.90
32476;DHT22;18929;48.008;10.882;2023-03-30T01:56:57;12.50;99.90
32476;DHT22;18929;48.008;10.882;2023-03-30T01:59:25;13.00;99.90
32476;DHT22;18929;48.008;10.882;2023-03-30T02:01:54;13.10;99.90
32476;DHT22;18929;48.008;10.882;2023-03-30T02:04:27;13.50;99.90
32476;DHT22;18929;48.008;10.882;2023-03-30T02:06:55;13.40;99.90
32476;DHT22;18929;48.008;10.882;2023-03-30T02:09:25;13.30;99.90
32476;DHT22;18929;48.008;10.882;2023-03-30T02:11:53;13.10;99.90
32476;DHT22;18929;48.008;10.882;2023-03-30T02:14:21;13.20;99.90
32476;DHT22;18929;48.008;10.882;2023-03-30T02:16:50;13.20;99.90
32476;DHT22;18929;48.008;10.882;2023-03-30T02:19:20;13.10;99.90
32476;DHT22;18929;48.008;10.882;2023-03-30T02:21:47;13.30;99.90
32476;DHT22;18929;48.008;10.882;2023-03-30T02:24:16;13.30;99.90
32476;DHT22;18929;48.008;10.882;2023-03-30T02:26:45;13.30;99.90
32476;DHT22;18929;48.008;10.882;2023-03-30T02:29:13;12.90;99.90
32476;DHT22;18929;48.008;10.882;2023-03-30T02:31:40;13.10;99.90
32476;DHT22;18929;48.008;10.882;2023-03-30T02:34:08;13.10;99.90
32476;DHT22;18929;48.008;10.882;2023-03-30T02:36:40;13.30;99.90
32476;DHT22;18929;48.008;10.882;2023-03-30T02:39:13;13.30;99.90
32476;DHT22;18929;48.008;10.882;2023-03-30T02:41:51;13.10;99.90
32476;DHT22;18929;48.008;10.882;2023-03-30T02:44:26;13.30;99.90
32476;DHT22;18929;48.008;10.882;2023-03-30T02:46:59;13.20;99.90
32476;DHT22;18929;48.008;10.882;2023-03-30T02:49:32;13.20;99.90
32476;DHT22;18929;48.008;10.882;2023-03-30T02:52:03;13.30;99.90
32476;DHT22;18929;48.008;10.882;2023-03-30T02:54:35;13.40;99.90
32476;DHT22;18929;48.008;10.882;2023-03-30T02:57:08;13.60;99.90
32476;DHT22;18929;48.008;10.882;2023-03-30T02:59:39;13.50;99.90
32476;DHT22;18929;48.008;10.882;2023-03-30T03:02:09;13.50;99.90
32476;DHT22;18929;48.008;10.882;2023-03-30T03:04:37;13.50;99.90
32476;DHT22;18929;48.008;10.882;2023-03-30T03:07:08;13.70;99.90
32476;DHT22;18929;48.008;10.882;2023-03-30T03:09:35;13.90;99.90
32476;DHT22;18929;48.008;10.882;2023-03-30T03:12:02;13.60;99.90
32476;DHT22;18929;48.008;10.882;2023-03-30T03:14:31;13.30;99.90
32476;DHT22;18929;48.008;10.882;2023-03-30T03:16:58;13.50;99.90
32476;DHT22;18929;48.008;10.882;2023-03-30T03:19:25;13.50;99.90
32476;DHT22;18929;48.008;10.882;2023-03-30T03:21:51;13.00;99.90
32476;DHT22;18929;48.008;10.882;2023-03-30T03:24:18;13.10;99.90
32476;DHT22;18929;48.008;10.882;2023-03-30T03:26:46;13.20;99.90
32476;DHT22;18929;48.008;10.882;2023-03-30T03:29:13;13.00;99.90
32476;DHT22;18929;48.008;10.882;2023-03-30T03:31:41;12.30;99.90
32476;DHT22;18929;48.008;10.882;2023-03-30T03:34:08;11.80;99.90
32476;DHT22;18929;48.008;10.882;2023-03-30T03:36:35;12.10;99.90
32476;DHT22;18929;48.008;10.882;2023-03-30T03:39:02;12.10;99.90
32476;DHT22;18929;48.008;10.882;2023-03-30T03:41:29;12.40;99.90
32476;DHT22;18929;48.008;10.882;2023-03-30T03:43:56;12.00;99.90
32476;DHT22;18929;48.008;10.882;2023-03-30T03:46:23;11.80;99.90
32476;DHT22;18929;48.008;10.882;2023-03-30T03:48:51;11.40;99.90
32476;DHT22;18929;48.008;10.882;2023-03-30T03:51:18;11.50;99.90
32476;DHT22;18929;48.008;10.882;2023-03-30T03:53:44;11.40;99.90
32476;DHT22;18929;48.008;10.882;2023-03-30T03:56:12;11.50;99.90
32476;DHT22;18929;48.008;10.882;2023-03-30T03:58:39;11.40;99.90
32476;DHT22;18929;48.008;10.882;2023-03-30T04:03:56;11.60;99.90
32476;DHT22;18929;48.008;10.882;2023-03-30T04:06:23;11.60;99.90
32476;DHT22;18929;48.008;10.882;2023-03-30T04:08:51;11.80;99.90
32476;DHT22;18929;48.008;10.882;2023-03-30T04:11:18;12.20;99.90
32476;DHT22;18929;48.008;10.882;2023-03-30T04:13:46;12.30;99.90
32476;DHT22;18929;48.008;10.882;2023-03-30T04:16:13;12.40;99.90
32476;DHT22;18929;48.008;10.882;2023-03-30T04:18:40;12.70;99.90
32476;DHT22;18929;48.008;10.882;2023-03-30T04:21:09;12.60;99.90
32476;DHT22;18929;48.008;10.882;2023-03-30T04:23:37;12.50;99.90
32476;DHT22;18929;48.008;10.882;2023-03-30T04:26:05;12.50;99.90
32476;DHT22;18929;48.008;10.882;2023-03-30T04:28:33;12.50;99.90
32476;DHT22;18929;48.008;10.882;2023-03-30T04:31:01;12.20;99.90
32476;DHT22;18929;48.008;10.882;2023-03-30T04:33:28;12.20;99.90
32476;DHT22;18929;48.008;10.882;2023-03-30T04:35:55;12.10;99.90
32476;DHT22;18929;48.008;10.882;2023-03-30T04:38:23;12.10;99.90
32476;DHT22;18929;48.008;10.882;2023-03-30T04:40:50;11.80;99.90
32476;DHT22;18929;48.008;10.882;2023-03-30T04:43:17;12.00;99.90
32476;DHT22;18929;48.008;10.882;2023-03-30T04:45:48;12.20;99.90
32476;DHT22;18929;48.008;10.882;2023-03-30T04:48:18;12.20;99.90
32476;DHT22;18929;48.008;10.882;2023-03-30T04:50:45;12.00;99.90
32476;DHT22;18929;48.008;10.882;2023-03-30T04:53:14;12.00;99.90
32476;DHT22;18929;48.008;10.882;2023-03-30T04:55:46;12.00;99.90
32476;DHT22;18929;48.008;10.882;2023-03-30T04:58:13;12.20;99.90
32476;DHT22;18929;48.008;10.882;2023-03-30T05:00:40;12.40;99.90
32476;DHT22;18929;48.008;10.882;2023-03-30T05:03:07;12.50;99.90
32476;DHT22;18929;48.008;10.882;2023-03-30T05:05:33;12.30;99.90
32476;DHT22;18929;48.008;10.882;2023-03-30T05:08:01;11.90;99.90
32476;DHT22;18929;48.008;10.882;2023-03-30T05:10:27;11.80;99.90
32476;DHT22;18929;48.008;10.882;2023-03-30T05:12:56;11.70;99.90
32476;DHT22;18929;48.008;10.882;2023-03-30T05:15:23;11.70;99.90
32476;DHT22;18929;48.008;10.882;2023-03-30T05:17:49;11.40;99.90
32476;DHT22;18929;48.008;10.882;2023-03-30T05:20:16;11.30;99.90
32476;DHT22;18929;48.008;10.882;2023-03-30T05:22:43;11.20;99.90
32476;DHT22;18929;48.008;10.882;2023-03-30T05:25:11;11.30;99.90
32476;DHT22;18929;48.008;10.882;2023-03-30T05:27:38;11.40;99.90
32476;DHT22;18929;48.008;10.882;2023-03-30T05:30:07;11.30;99.90
32476;DHT22;18929;48.008;10.882;2023-03-30T05:32:34;11.40;99.90
32476;DHT22;18929;48.008;10.882;2023-03-30T05:35:01;11.10;99.90
32476;DHT22;18929;48.008;10.882;2023-03-30T05:37:27;11.20;99.90
32476;DHT22;18929;48.008;10.882;2023-03-30T05:39:54;11.40;99.90
32476;DHT22;18929;48.008;10.882;2023-03-30T05:42:21;11.50;99.90
32476;DHT22;18929;48.008;10.882;2023-03-30T05:44:48;11.60;99.90
32476;DHT22;18929;48.008;10.882;2023-03-30T05:47:16;11.60;99.90
32476;DHT22;18929;48.008;10.882;2023-03-30T05:49:43;11.40;99.90
32476;DHT22;18929;48.008;10.882;2023-03-30T05:52:10;11.40;99.90
32476;DHT22;18929;48.008;10.882;2023-03-30T05:54:37;11.30;99.90
32476;DHT22;18929;48.008;10.882;2023-03-30T05:57:04;11.30;99.90
32476;DHT22;18929;48.008;10.882;2023-03-30T05:59:31;11.40;99.90
32476;DHT22;18929;48.008;10.882;2023-03-30T06:01:58;11.50;99.90
32476;DHT22;18929;48.008;10.882;2023-03-30T06:04:26;11.50;99.90
32476;DHT22;18929;48.008;10.882;2023-03-30T06:06:53;11.70;99.90
32476;DHT22;18929;48.008;10.882;2023-03-30T06:09:20;12.00;99.90
32476;DHT22;18929;48.008;10.882;2023-03-30T06:11:48;12.10;99.90
32476;DHT22;18929;48.008;10.882;2023-03-30T06:14:16;12.20;99.90
32476;DHT22;18929;48.008;10.882;2023-03-30T06:16:43;12.40;99.90
32476;DHT22;18929;48.008;10.882;2023-03-30T06:19:10;11.80;99.90
32476;DHT22;18929;48.008;10.882;2023-03-30T06:21:40;11.70;99.90
32476;DHT22;18929;48.008;10.882;2023-03-30T06:24:07;11.60;99.90
32476;DHT22;18929;48.008;10.882;2023-03-30T06:29:18;11.50;99.90
32476;DHT22;18929;48.008;10.882;2023-03-30T06:31:45;11.60;99.90
32476;DHT22;18929;48.008;10.882;2023-03-30T06:34:12;11.60;99.90
32476;DHT22;18929;48.008;10.882;2023-03-30T06:36:40;11.70;99.90
32476;DHT22;18929;48.008;10.882;2023-03-30T06:39:08;11.80;99.90
32476;DHT22;18929;48.008;10.882;2023-03-30T06:41:36;11.40;99.90
32476;DHT22;18929;48.008;10.882;2023-03-30T06:44:03;11.50;99.90
32476;DHT22;18929;48.008;10.882;2023-03-30T06:46:29;11.70;99.90
32476;DHT22;18929;48.008;10.882;2023-03-30T06:48:57;11.70;99.90
32476;DHT22;18929;48.008;10.882;2023-03-30T06:51:24;11.80;99.90
32476;DHT22;18929;48.008;10.882;2023-03-30T06:56:56;11.70;99.90
32476;DHT22;18929;48.008;10.882;2023-03-30T06:59:23;11.70;99.90
32476;DHT22;18929;48.008;10.882;2023-03-30T07:01:50;11.80;99.90
32476;DHT22;18929;48.008;10.882;2023-03-30T07:04:29;11.80;99.90
32476;DHT22;18929;48.008;10.882;2023-03-30T07:06:56;11.70;99.90
32476;DHT22;18929;48.008;10.882;2023-03-30T07:09:24;11.90;99.90
32476;DHT22;18929;48.008;10.882;2023-03-30T07:11:51;12.20;99.90
32476;DHT22;18929;48.008;10.882;2023-03-30T07:14:19;12.20;99.90
32476;DHT22;18929;48.008;10.882;2023-03-30T07:16:46;12.30;99.90
32476;DHT22;18929;48.008;10.882;2023-03-30T07:19:13;11.90;99.90
32476;DHT22;18929;48.008;10.882;2023-03-30T07:21:40;12.00;99.90
32476;DHT22;18929;48.008;10.882;2023-03-30T07:24:07;12.30;99.90
32476;DHT22;18929;48.008;10.882;2023-03-30T07:26:34;12.70;99.90
32476;DHT22;18929;48.008;10.882;2023-03-30T07:29:01;12.40;99.90
32476;DHT22;18929;48.008;10.882;2023-03-30T07:31:30;12.50;99.90
32476;DHT22;18929;48.008;10.882;2023-03-30T07:33:57;12.50;99.90
32476;DHT22;18929;48.008;10.882;2023-03-30T07:36:24;12.70;99.90
32476;DHT22;18929;48.008;10.882;2023-03-30T07:38:51;12.70;99.90
32476;DHT22;18929;48.008;10.882;2023-03-30T07:41:17;12.30;99.90
32476;DHT22;18929;48.008;10.882;2023-03-30T07:43:44;12.20;99.90
32476;DHT22;18929;48.008;10.882;2023-03-30T07:46:11;12.60;99.90
32476;DHT22;18929;48.008;10.882;2023-03-30T07:48:39;12.90;99.90
32476;DHT22;18929;48.008;10.882;2023-03-30T07:51:07;13.00;99.90
32476;DHT22;18929;48.008;10.882;2023-03-30T07:53:34;13.10;99.90
32476;DHT22;18929;48.008;10.882;2023-03-30T07:56:01;13.20;99.90
32476;DHT22;18929;48.008;10.882;2023-03-30T07:58:28;13.30;99.90
32476;DHT22;18929;48.008;10.882;2023-03-30T08:00:54;13.30;99.90
32476;DHT22;18929;48.008;10.882;2023-03-30T08:03:21;13.30;99.90
32476;DHT22;18929;48.008;10.882;2023-03-30T08:05:53;13.30;99.90
32476;DHT22;18929;48.008;10.882;2023-03-30T08:08:21;13.50;99.90
32476;DHT22;18929;48.008;10.882;2023-03-30T08:10:47;13.50;99.90
32476;DHT22;18929;48.008;10.882;2023-03-30T08:13:14;13.80;99.90
32476;DHT22;18929;48.008;10.882;2023-03-30T08:15:41;13.70;99.90
32476;DHT22;18929;48.008;10.882;2023-03-30T08:18:08;13.60;99.90
32476;DHT22;18929;48.008;10.882;2023-03-30T08:20:37;13.50;99.90
32476;DHT22;18929;48.008;10.882;2023-03-30T08:23:06;13.50;99.90
32476;DHT22;18929;48.008;10.882;2023-03-30T08:25:33;13.50;99.90
32476;DHT22;18929;48.008;10.882;2023-03-30T08:28:00;13.60;99.90
32476;DHT22;18929;48.008;10.882;2023-03-30T08:30:27;13.90;99.90
32476;DHT22;18929;48.008;10.882;2023-03-30T08:32:54;13.90;99.90
32476;DHT22;18929;48.008;10.882;2023-03-30T08:35:21;13.90;99.90
32476;DHT22;18929;48.008;10.882;2023-03-30T08:37:48;13.80;99.90
32476;DHT22;18929;48.008;10.882;2023-03-30T08:40:16;13.90;99.90
32476;DHT22;18929;48.008;10.882;2023-03-30T08:42:47;13.60;99.90
32476;DHT22;18929;48.008;10.882;2023-03-30T08:45:20;13.80;99.90
32476;DHT22;18929;48.008;10.882;2023-03-30T08:47:47;13.90;99.90
32476;DHT22;18929;48.008;10.882;2023-03-30T08:50:15;14.10;99.90
32476;DHT22;18929;48.008;10.882;2023-03-30T08:52:43;14.10;99.90
32476;DHT22;18929;48.008;10.882;2023-03-30T08:55:14;14.10;99.90
32476;DHT22;18929;48.008;10.882;2023-03-30T08:57:46;14.30;99.90
32476;DHT22;18929;48.008;10.882;2023-03-30T09:00:17;13.90;99.90
32476;DHT22;18929;48.008;10.882;2023-03-30T09:02:48;13.60;99.90
32476;DHT22;18929;48.008;10.882;2023-03-30T09:05:18;13.60;99.90
32476;DHT22;18929;48.008;10.882;2023-03-30T09:07:50;13.10;99.90
32476;DHT22;18929;48.008;10.882;2023-03-30T09:10:18;13.30;99.90
32476;DHT22;18929;48.008;10.882;2023-03-30T09:12:48;13.70;99.90
32476;DHT22;18929;48.008;10.882;2023-03-30T09:15:17;13.90;99.90
32476;DHT22;18929;48.008;10.882;2023-03-30T09:17:46;13.20;99.90
32476;DHT22;18929;48.008;10.882;2023-03-30T09:20:14;13.10;99.90
32476;DHT22;18929;48.008;10.882;2023-03-30T09:22:42;13.20;99.90
32476;DHT22;18929;48.008;10.882;2023-03-30T09:25:14;13.40;99.90
32476;DHT22;18929;48.008;10.882;2023-03-30T09:27:44;13.60;99.90
32476;DHT22;18929;48.008;10.882;2023-03-30T09:30:18;13.30;99.90
32476;DHT22;18929;48.008;10.882;2023-03-30T09:32:47;13.80;99.90
32476;DHT22;18929;48.008;10.882;2023-03-30T09:35:15;13.70;99.90
32476;DHT22;18929;48.008;10.882;2023-03-30T09:37:43;13.30;99.90
32476;DHT22;18929;48.008;10.882;2023-03-30T09:40:16;13.60;99.90
32476;DHT22;18929;48.008;10.882;2023-03-30T09:42:45;13.70;99.90
32476;DHT22;18929;48.008;10.882;2023-03-30T09:45:13;13.20;99.90
32476;DHT22;18929;48.008;10.882;2023-03-30T09:47:44;13.10;99.90
32476;DHT22;18929;48.008;10.882;2023-03-30T09:50:16;13.40;99.90
32476;DHT22;18929;48.008;10.882;2023-03-30T09:52:52;13.70;99.90
32476;DHT22;18929;48.008;10.882;2023-03-30T09:55:26;14.00;99.90
32476;DHT22;18929;48.008;10.882;2023-03-30T09:57:53;14.30;99.90
32476;DHT22;18929;48.008;10.882;2023-03-30T10:00:22;14.50;99.90
32476;DHT22;18929;48.008;10.882;2023-03-30T10:02:54;14.10;99.90
32476;DHT22;18929;48.008;10.882;2023-03-30T10:05:21;14.50;99.90
32476;DHT22;18929;48.008;10.882;2023-03-30T10:07:51;14.40;99.90
32476;DHT22;18929;48.008;10.882;2023-03-30T10:10:26;13.90;99.90
32476;DHT22;18929;48.008;10.882;2023-03-30T10:13:03;13.60;99.90
32476;DHT22;18929;48.008;10.882;2023-03-30T10:15:30;13.60;99.90
32476;DHT22;18929;48.008;10.882;2023-03-30T10:20:44;14.40;99.90
32476;DHT22;18929;48.008;10.882;2023-03-30T10:23:16;13.60;99.90
32476;DHT22;18929;48.008;10.882;2023-03-30T10:25:44;14.00;99.90
32476;DHT22;18929;48.008;10.882;2023-03-30T10:28:14;13.80;99.90
32476;DHT22;18929;48.008;10.882;2023-03-30T10:30:48;14.60;99.90
32476;DHT22;18929;48.008;10.882;2023-03-30T10:33:15;14.40;99.90
32476;DHT22;18929;48.008;10.882;2023-03-30T10:35:44;14.60;99.90
32476;DHT22;18929;48.008;10.882;2023-03-30T10:38:20;14.80;99.90
32476;DHT22;18929;48.008;10.882;2023-03-30T10:40:46;14.50;99.90
32476;DHT22;18929;48.008;10.882;2023-03-30T10:43:16;14.40;99.90
32476;DHT22;18929;48.008;10.882;2023-03-30T10:45:46;14.40;99.90
32476;DHT22;18929;48.008;10.882;2023-03-30T10:48:25;13.90;99.90
32476;DHT22;18929;48.008;10.882;2023-03-30T10:50:58;14.30;99.90
32476;DHT22;18929;48.008;10.882;2023-03-30T10:53:31;14.40;99.90
32476;DHT22;18929;48.008;10.882;2023-03-30T10:56:01;14.60;99.90
32476;DHT22;18929;48.008;10.882;2023-03-30T10:58:34;14.20;99.90
32476;DHT22;18929;48.008;10.882;2023-03-30T11:01:08;14.00;99.90
32476;DHT22;18929;48.008;10.882;2023-03-30T11:03:37;13.70;99.90
32476;DHT22;18929;48.008;10.882;2023-03-30T11:06:07;13.90;99.90
32476;DHT22;18929;48.008;10.882;2023-03-30T11:08:37;14.00;99.90
32476;DHT22;18929;48.008;10.882;2023-03-30T11:11:05;14.20;99.90
32476;DHT22;18929;48.008;10.882;2023-03-30T11:13:32;14.20;99.90
32476;DHT22;18929;48.008;10.882;2023-03-30T11:16:01;13.90;99.90
32476;DHT22;18929;48.008;10.882;2023-03-30T11:18:30;13.80;99.90
32476;DHT22;18929;48.008;10.882;2023-03-30T11:20:59;13.50;99.90
32476;DHT22;18929;48.008;10.882;2023-03-30T11:23:31;13.70;99.90
32476;DHT22;18929;48.008;10.882;2023-03-30T11:26:01;13.70;99.90
32476;DHT22;18929;48.008;10.882;2023-03-30T11:28:42;13.60;99.90
32476;DHT22;18929;48.008;10.882;2023-03-30T11:31:13;13.50;99.90
32476;DHT22;18929;48.008;10.882;2023-03-30T11:33:45;13.10;99.90
32476;DHT22;18929;48.008;10.882;2023-03-30T11:36:15;12.30;99.90
32476;DHT22;18929;48.008;10.882;2023-03-30T11:38:45;12.30;99.90
32476;DHT22;18929;48.008;10.882;2023-03-30T11:41:14;12.10;99.90
32476;DHT22;18929;48.008;10.882;2023-03-30T11:43:42;12.20;99.90
32476;DHT22;18929;48.008;10.882;2023-03-30T11:46:11;12.40;99.90
32476;DHT22;18929;48.008;10.882;2023-03-30T11:51:48;12.60;99.90
32476;DHT22;18929;48.008;10.882;2023-03-30T11:57:10;12.90;99.90
32476;DHT22;18929;48.008;10.882;2023-03-30T11:59:42;12.20;99.90
32476;DHT22;18929;48.008;10.882;2023-03-30T12:02:16;12.80;99.90
32476;DHT22;18929;48.008;10.882;2023-03-30T12:04:46;13.30;99.90
32476;DHT22;18929;48.008;10.882;2023-03-30T12:07:32;13.50;99.90
32476;DHT22;18929;48.008;10.882;2023-03-30T12:10:02;12.90;99.90
32476;DHT22;18929;48.008;10.882;2023-03-30T12:12:32;13.10;99.90
32476;DHT22;18929;48.008;10.882;2023-03-30T12:15:03;13.30;99.90
32476;DHT22;18929;48.008;10.882;2023-03-30T12:17:33;13.20;99.90
32476;DHT22;18929;48.008;10.882;2023-03-30T12:20:05;13.40;99.90
32476;DHT22;18929;48.008;10.882;2023-03-30T12:22:34;13.70;99.90
32476;DHT22;18929;48.008;10.882;2023-03-30T12:25:06;13.50;99.90
32476;DHT22;18929;48.008;10.882;2023-03-30T12:27:52;13.50;99.90
32476;DHT22;18929;48.008;10.882;2023-03-30T12:30:24;13.40;99.90
32476;DHT22;18929;48.008;10.882;2023-03-30T12:33:01;13.30;99.90
32476;DHT22;18929;48.008;10.882;2023-03-30T12:35:49;13.20;99.90
32476;DHT22;18929;48.008;10.882;2023-03-30T12:38:18;13.00;99.90
32476;DHT22;18929;48.008;10.882;2023-03-30T12:40:46;13.00;99.90
32476;DHT22;18929;48.008;10.882;2023-03-30T12:43:21;13.20;99.90
32476;DHT22;18929;48.008;10.882;2023-03-30T12:45:50;13.20;99.90
32476;DHT22;18929;48.008;10.882;2023-03-30T12:50:59;13.60;99.90
32476;DHT22;18929;48.008;10.882;2023-03-30T12:53:47;13.40;99.90
32476;DHT22;18929;48.008;10.882;2023-03-30T12:56:21;13.30;99.90
32476;DHT22;18929;48.008;10.882;2023-03-30T12:58:55;13.40;99.90
32476;DHT22;18929;48.008;10.882;2023-03-30T13:01:29;13.40;99.90
32476;DHT22;18929;48.008;10.882;2023-03-30T13:04:00;13.40;99.90
32476;DHT22;18929;48.008;10.882;2023-03-30T13:06:29;13.50;99.90
32476;DHT22;18929;48.008;10.882;2023-03-30T13:09:01;13.50;99.90
32476;DHT22;18929;48.008;10.882;2023-03-30T13:11:41;13.30;99.90
32476;DHT22;18929;48.008;10.882;2023-03-30T13:14:24;13.00;99.90
32476;DHT22;18929;48.008;10.882;2023-03-30T13:17:05;13.00;99.90
32476;DHT22;18929;48.008;10.882;2023-03-30T13:19:43;12.80;99.90
32476;DHT22;18929;48.008;10.882;2023-03-30T13:25:01;12.50;99.90
32476;DHT22;18929;48.008;10.882;2023-03-30T13:27:30;12.60;99.90
32476;DHT22;18929;48.008;10.882;2023-03-30T13:29:59;12.60;99.90
32476;DHT22;18929;48.008;10.882;2023-03-30T13:32:36;12.70;99.90
32476;DHT22;18929;48.008;10.882;2023-03-30T13:35:12;12.60;99.90
32476;DHT22;18929;48.008;10.882;2023-03-30T13:37:56;12.80;99.90
32476;DHT22;18929;48.008;10.882;2023-03-30T13:40:28;12.70;99.90
32476;DHT22;18929;48.008;10.882;2023-03-30T13:42:58;12.60;99.90
32476;DHT22;18929;48.008;10.882;2023-03-30T13:45:34;12.40;99.90
32476;DHT22;18929;48.008;10.882;2023-03-30T13:50:44;12.40;99.90
32476;DHT22;18929;48.008;10.882;2023-03-30T13:53:12;12.30;99.90
32476;DHT22;18929;48.008;10.882;2023-03-30T13:55:42;12.50;99.90
32476;DHT22;18929;48.008;10.882;2023-03-30T13:58:11;12.30;99.90
32476;DHT22;18929;48.008;10.882;2023-03-30T14:00:40;12.30;99.90
32476;DHT22;18929;48.008;10.882;2023-03-30T14:03:25;12.20;99.90
32476;DHT22;18929;48.008;10.882;2023-03-30T14:05:52;12.30;99.90
32476;DHT22;18929;48.008;10.882;2023-03-30T14:08:19;12.00;99.90
32476;DHT22;18929;48.008;10.882;2023-03-30T14:10:45;12.10;99.90
32476;DHT22;18929;48.008;10.882;2023-03-30T14:13:12;12.00;99.90
32476;DHT22;18929;48.008;10.882;2023-03-30T14:15:41;12.00;99.90
32476;DHT22;18929;48.008;10.882;2023-03-30T14:18:09;12.20;99.90
32476;DHT22;18929;48.008;10.882;2023-03-30T14:20:43;12.10;99.90
32476;DHT22;18929;48.008;10.882;2023-03-30T14:23:12;12.30;99.90
32476;DHT22;18929;48.008;10.882;2023-03-30T14:25:40;12.20;99.90
32476;DHT22;18929;48.008;10.882;2023-03-30T14:28:10;12.10;99.90
32476;DHT22;18929;48.008;10.882;2023-03-30T14:30:38;12.30;99.90
32476;DHT22;18929;48.008;10.882;2023-03-30T14:33:14;12.50;99.90
32476;DHT22;18929;48.008;10.882;2023-03-30T14:35:43;12.30;99.90
32476;DHT22;18929;48.008;10.882;2023-03-30T14:38:12;12.20;99.90
32476;DHT22;18929;48.008;10.882;2023-03-30T14:40:40;12.30;99.90
32476;DHT22;18929;48.008;10.882;2023-03-30T14:43:10;12.20;99.90
32476;DHT22;18929;48.008;10.882;2023-03-30T14:45:38;12.20;99.90
32476;DHT22;18929;48.008;10.882;2023-03-30T14:48:05;12.20;99.90
32476;DHT22;18929;48.008;10.882;2023-03-30T14:50:34;12.30;99.90
32476;DHT22;18929;48.008;10.882;2023-03-30T14:53:01;12.10;99.90
32476;DHT22;18929;48.008;10.882;2023-03-30T14:55:28;12.30;99.90
32476;DHT22;18929;48.008;10.882;2023-03-30T14:57:55;12.30;99.90
32476;DHT22;18929;48.008;10.882;2023-03-30T15:00:23;11.90;99.90
32476;DHT22;18929;48.008;10.882;2023-03-30T15:02:51;12.20;99.90
32476;DHT22;18929;48.008;10.882;2023-03-30T15:05:18;12.20;99.90
32476;DHT22;18929;48.008;10.882;2023-03-30T15:07:48;12.10;99.90
32476;DHT22;18929;48.008;10.882;2023-03-30T15:10:23;12.10;99.90
32476;DHT22;18929;48.008;10.882;2023-03-30T15:12:51;12.00;99.90
32476;DHT22;18929;48.008;10.882;2023-03-30T15:15:19;12.00;99.90
32476;DHT22;18929;48.008;10.882;2023-03-30T15:17:48;12.20;99.90
32476;DHT22;18929;48.008;10.882;2023-03-30T15:20:17;12.10;99.90
32476;DHT22;18929;48.008;10.882;2023-03-30T15:22:44;11.90;99.90
32476;DHT22;18929;48.008;10.882;2023-03-30T15:25:14;12.20;99.90
32476;DHT22;18929;48.008;10.882;2023-03-30T15:27:42;12.80;99.90
32476;DHT22;18929;48.008;10.882;2023-03-30T15:30:10;13.10;99.90
32476;DHT22;18929;48.008;10.882;2023-03-30T15:32:44;13.20;99.90
32476;DHT22;18929;48.008;10.882;2023-03-30T15:35:15;13.30;99.90
32476;DHT22;18929;48.008;10.882;2023-03-30T15:37:50;13.40;99.90
32476;DHT22;18929;48.008;10.882;2023-03-30T15:40:26;13.50;99.90
32476;DHT22;18929;48.008;10.882;2023-03-30T15:45:35;13.70;99.90
32476;DHT22;18929;48.008;10.882;2023-03-30T15:48:02;13.80;99.90
32476;DHT22;18929;48.008;10.882;2023-03-30T15:50:29;14.00;99.90
32476;DHT22;18929;48.008;10.882;2023-03-30T15:52:57;14.30;99.90
32476;DHT22;18929;48.008;10.882;2023-03-30T15:55:27;14.30;99.90
32476;DHT22;18929;48.008;10.882;2023-03-30T15:57:54;14.20;99.90